首页
METAR-TAF:

METAR-TAF

机场 :

羅曼·莫圖國際機場

科羅爾, 巴伯尔道布岛, 帛琉

纬度: 07-22N, 经度: 134-32E, 海拔: 54米

当前天气观测

该预报发布于40分钟前的19:50 UTC
风速8节,风向西南
温度 27°C
湿度 84%
气压 1008 hPa
能見度: 24.1公里
多云层高于1600英尺
多云层高于30000英尺

METAR: PTRO 171950Z 22008KT 15SM BKN016 BKN300 27/24 A2977

时间: 05:30 (20:30 UTC)

预报

该预报发布于2小时和52分钟前的17:38 UTC
预报有效从17日的 18点(UTC)到 18日的 18点(UTC)
风速11节,风向西南
能見度: 10公里
散云层高于1600英尺
多云层高于11000英尺
附近有阵雨

TAF: PTRO 171738Z 1718/1818 23011KT P6SM VCSH SCT016 BKN110

超过4000个机场的气象观测和天气预报(METAR&TAF报告)。

可查询的气象台以黄色和红色小点在地图上表示。

将鼠标移到小点上方,可查看气象台名称。

然后点击查看天气观测和预报。

如需切换地图:点击带黑十字的绿色按钮放大地图;点击带横线的绿色按钮缩小地图;或者点击绿色箭头查看邻近地区的地图。


METAR-TAF: